Time;durP1;ratioP1;P1;durP2;ratioP2;P2;SDS_P1;SDS_P2;PMS_P1;PMS_P2;Temp;Humidity;BMP_temperature;BMP_pressure;BME280_temperature;BME280_humidity;BME280_pressure;Samples;Min_cycle;Max_cycle;Signal;HPM_P1;HPM_P2
2023/10/03 00:00:22;;;;;;;27.85;15.00;;;;;;;;;;5003346;28;100328;-69
2023/10/03 00:02:51;;;;;;;34.75;15.43;;;;;;;;;;4999794;28;99852;-71
2023/10/03 00:05:22;;;;;;;34.05;16.10;;;;;;;;;;5004933;28;99457;-71
2023/10/03 00:07:51;;;;;;;30.67;14.32;;;;;;;;;;5002165;28;100130;-70
2023/10/03 00:10:18;;;;;;;32.05;14.82;;;;;;;;;;5003884;28;99924;-71
2023/10/03 00:12:48;;;;;;;38.22;15.35;;;;;;;;;;5005841;28;100344;-71
2023/10/03 00:15:15;;;;;;;32.75;16.55;;;;;;;;;;5001073;28;99795;-71
2023/10/03 00:17:42;;;;;;;28.10;14.70;;;;;;;;;;4996579;28;100142;-72
2023/10/03 00:20:11;;;;;;;36.47;15.40;;;;;;;;;;5002634;28;99998;-72
2023/10/03 00:22:38;;;;;;;35.30;15.52;;;;;;;;;;5006689;28;100269;-71
2023/10/03 00:25:07;;;;;;;33.97;15.40;;;;;;;;;;5007425;28;100449;-70
2023/10/03 00:27:35;;;;;;;45.15;15.82;;;;;;;;;;5006214;28;99164;-70
2023/10/03 00:30:02;;;;;;;31.67;15.98;;;;;;;;;;5007922;28;98932;-71
2023/10/03 00:32:30;;;;;;;37.13;15.80;;;;;;;;;;5006878;28;99421;-71
2023/10/03 00:34:57;;;;;;;35.13;16.45;;;;;;;;;;5008938;28;98684;-70
2023/10/03 00:37:24;;;;;;;29.50;15.35;;;;;;;;;;5002007;28;102532;-70
2023/10/03 00:39:50;;;;;;;39.55;15.90;;;;;;;;;;5005244;28;99934;-71
2023/10/03 00:42:20;;;;;;;33.42;15.43;;;;;;;;;;5004621;28;100197;-71
2023/10/03 00:44:47;;;;;;;32.40;15.75;;;;;;;;;;5006714;28;99523;-71
2023/10/03 00:47:14;;;;;;;32.25;15.43;;;;;;;;;;5001316;28;100862;-71
2023/10/03 00:49:43;;;;;;;32.88;15.38;;;;;;;;;;5003431;28;99646;-71
2023/10/03 00:52:10;;;;;;;38.80;15.70;;;;;;;;;;5006703;28;99046;-69
2023/10/03 00:54:37;;;;;;;35.78;15.63;;;;;;;;;;5005368;28;100373;-71
2023/10/03 00:57:04;;;;;;;38.92;16.98;;;;;;;;;;5009645;28;100228;-71
2023/10/03 00:59:33;;;;;;;37.72;16.98;;;;;;;;;;5007055;28;99948;-70
2023/10/03 01:02:06;;;;;;;46.67;17.40;;;;;;;;;;5004844;28;100097;-71
2023/10/03 01:04:34;;;;;;;32.08;15.80;;;;;;;;;;5003623;28;99560;-71
2023/10/03 01:07:01;;;;;;;46.30;17.65;;;;;;;;;;5003040;28;100605;-70
2023/10/03 01:09:29;;;;;;;36.95;15.77;;;;;;;;;;5003584;28;98857;-70
2023/10/03 01:11:56;;;;;;;47.50;17.33;;;;;;;;;;5006935;28;100207;-70
2023/10/03 01:14:26;;;;;;;34.88;15.07;;;;;;;;;;5004058;28;100768;-72
2023/10/03 01:16:52;;;;;;;34.35;15.93;;;;;;;;;;5000335;28;101223;-71
2023/10/03 01:19:25;;;;;;;45.55;17.45;;;;;;;;;;5007818;28;99561;-71
2023/10/03 01:21:52;;;;;;;36.08;15.75;;;;;;;;;;5007220;28;98625;-72
2023/10/03 01:24:24;;;;;;;35.63;15.55;;;;;;;;;;5004740;28;101789;-71
2023/10/03 01:26:52;;;;;;;40.20;16.55;;;;;;;;;;5004836;28;99372;-71
2023/10/03 01:29:22;;;;;;;37.03;15.90;;;;;;;;;;5004487;28;100917;-71
2023/10/03 01:31:49;;;;;;;39.28;16.27;;;;;;;;;;4999051;28;99821;-71
2023/10/03 01:34:16;;;;;;;36.50;16.58;;;;;;;;;;5015417;28;99521;-70
2023/10/03 01:36:45;;;;;;;35.17;16.05;;;;;;;;;;5003871;28;99379;-71
2023/10/03 01:39:12;;;;;;;44.28;16.70;;;;;;;;;;5000475;28;101770;-70
2023/10/03 01:41:40;;;;;;;28.10;15.55;;;;;;;;;;4999933;28;100053;-70
2023/10/03 01:44:07;;;;;;;35.72;15.30;;;;;;;;;;5004195;28;98291;-70
2023/10/03 01:46:34;;;;;;;33.03;15.93;;;;;;;;;;4995768;28;100957;-70
2023/10/03 01:49:02;;;;;;;35.45;16.08;;;;;;;;;;5003698;28;100093;-70
2023/10/03 01:51:29;;;;;;;34.67;16.75;;;;;;;;;;5016006;28;101709;-70
2023/10/03 01:53:56;;;;;;;36.00;15.82;;;;;;;;;;5004243;28;99443;-71
2023/10/03 01:56:24;;;;;;;34.88;16.05;;;;;;;;;;5002498;28;99188;-71
2023/10/03 01:58:51;;;;;;;33.78;13.80;;;;;;;;;;5034348;27;101511;-71
2023/10/03 02:01:18;;;;;;;42.90;15.75;;;;;;;;;;5005551;28;99618;-71
2023/10/03 02:03:45;;;;;;;36.75;14.63;;;;;;;;;;5009591;28;101782;-72
2023/10/03 02:06:12;;;;;;;31.65;14.63;;;;;;;;;;5002602;28;99789;-72
2023/10/03 02:08:38;;;;;;;35.58;15.50;;;;;;;;;;5002285;28;99342;-71
2023/10/03 02:11:11;;;;;;;33.63;15.60;;;;;;;;;;5005890;28;99843;-71
2023/10/03 02:13:39;;;;;;;;;;;;;;;;;;5002198;28;98867;-71
2023/10/03 02:16:07;;;;;;;39.20;14.68;;;;;;;;;;5001202;28;124931;-70
2023/10/03 02:18:35;;;;;;;33.40;15.35;;;;;;;;;;5002665;28;101601;-71
2023/10/03 02:21:02;;;;;;;38.28;15.35;;;;;;;;;;5002901;28;100889;-70
2023/10/03 02:23:29;;;;;;;38.55;15.85;;;;;;;;;;5008517;28;98769;-70
2023/10/03 02:25:57;;;;;;;36.63;16.00;;;;;;;;;;5005457;28;99986;-70
2023/10/03 02:28:26;;;;;;;36.63;16.88;;;;;;;;;;5003209;28;99313;-71
2023/10/03 02:30:55;;;;;;;34.28;14.80;;;;;;;;;;5003397;28;99910;-70
2023/10/03 02:33:24;;;;;;;33.33;14.85;;;;;;;;;;5004393;28;98824;-71
2023/10/03 02:35:50;;;;;;;37.97;14.05;;;;;;;;;;5004416;28;99046;-70
2023/10/03 02:38:24;;;;;;;35.75;14.23;;;;;;;;;;5004062;28;100013;-71
2023/10/03 02:40:56;;;;;;;36.47;16.02;;;;;;;;;;5002889;28;100008;-71
2023/10/03 02:43:27;;;;;;;35.22;15.65;;;;;;;;;;4999617;28;100143;-71
2023/10/03 02:45:54;;;;;;;34.42;14.02;;;;;;;;;;5007715;28;100109;-72
2023/10/03 02:48:21;;;;;;;34.08;14.35;;;;;;;;;;5002790;28;100034;-70
2023/10/03 02:50:50;;;;;;;31.33;13.88;;;;;;;;;;5004141;28;101103;-70
2023/10/03 02:53:19;;;;;;;28.90;13.55;;;;;;;;;;5004751;28;98757;-72
2023/10/03 02:55:47;;;;;;;34.38;15.38;;;;;;;;;;5003032;28;100794;-69
2023/10/03 02:58:14;;;;;;;37.95;13.30;;;;;;;;;;5003498;28;99174;-70
2023/10/03 03:00:43;;;;;;;28.10;13.73;;;;;;;;;;5003176;28;101885;-70
2023/10/03 03:03:10;;;;;;;37.60;14.50;;;;;;;;;;5004036;28;99100;-70
2023/10/03 03:05:37;;;;;;;30.02;12.73;;;;;;;;;;5002213;28;101825;-71
2023/10/03 03:08:31;;;;;;;34.63;14.40;;;;;;;;;;5005969;28;100266;-70
2023/10/03 03:10:58;;;;;;;35.13;13.82;;;;;;;;;;5003359;28;101806;-71
2023/10/03 03:13:26;;;;;;;32.15;14.18;;;;;;;;;;5007640;28;99129;-71
2023/10/03 03:15:59;;;;;;;33.92;13.55;;;;;;;;;;5000824;28;99991;-70
2023/10/03 03:18:30;;;;;;;24.73;12.48;;;;;;;;;;5002038;28;100047;-71
2023/10/03 03:21:07;;;;;;;29.65;12.57;;;;;;;;;;5000456;28;99879;-70
2023/10/03 03:23:38;;;;;;;29.00;13.40;;;;;;;;;;4994523;28;100229;-70
2023/10/03 03:26:17;;;;;;;28.48;12.77;;;;;;;;;;4999412;27;101792;-72
2023/10/03 03:28:49;;;;;;;32.10;13.45;;;;;;;;;;5002570;28;99864;-71
2023/10/03 03:31:22;;;;;;;30.90;12.43;;;;;;;;;;5004225;28;100355;-70
2023/10/03 03:33:51;;;;;;;25.17;12.70;;;;;;;;;;5004059;28;98923;-71
2023/10/03 03:36:20;;;;;;;28.27;13.32;;;;;;;;;;5004787;28;99537;-71
2023/10/03 03:38:47;;;;;;;26.75;12.27;;;;;;;;;;5004440;28;100220;-70
2023/10/03 03:41:14;;;;;;;28.33;11.95;;;;;;;;;;5004944;28;99496;-71
2023/10/03 03:43:42;;;;;;;28.33;11.75;;;;;;;;;;5002440;28;100169;-72
2023/10/03 03:46:09;;;;;;;25.17;10.90;;;;;;;;;;5002366;28;99343;-70
2023/10/03 03:48:36;;;;;;;21.83;10.93;;;;;;;;;;5004998;28;101096;-71
2023/10/03 03:51:06;;;;;;;21.33;10.77;;;;;;;;;;5004484;28;99028;-71
2023/10/03 03:53:33;;;;;;;25.70;9.60;;;;;;;;;;5003841;28;101311;-71
2023/10/03 03:56:00;;;;;;;20.70;10.23;;;;;;;;;;5000910;28;101260;-72
2023/10/03 03:58:26;;;;;;;25.33;9.98;;;;;;;;;;5001268;28;99825;-69
2023/10/03 04:00:53;;;;;;;16.95;8.57;;;;;;;;;;4998134;28;99096;-71
2023/10/03 04:03:20;;;;;;;17.05;8.38;;;;;;;;;;5011465;28;100393;-72
2023/10/03 04:05:47;;;;;;;16.98;7.85;;;;;;;;;;5002950;28;100174;-71
2023/10/03 04:08:15;;;;;;;16.83;6.57;;;;;;;;;;5004652;28;98836;-71
2023/10/03 04:10:43;;;;;;;20.20;7.47;;;;;;;;;;5003923;28;99324;-70
2023/10/03 04:13:15;;;;;;;22.55;7.10;;;;;;;;;;5001772;28;99808;-71
2023/10/03 04:15:43;;;;;;;;;;;;;;;;;;5001173;28;100584;-70
2023/10/03 04:18:09;;;;;;;11.82;5.50;;;;;;;;;;5003460;28;129300;-70
2023/10/03 04:20:39;;;;;;;20.85;5.63;;;;;;;;;;5015341;28;99374;-72
2023/10/03 04:23:07;;;;;;;20.08;5.60;;;;;;;;;;4997910;28;100606;-71
2023/10/03 04:25:34;;;;;;;9.43;4.70;;;;;;;;;;5000542;28;99658;-70
2023/10/03 04:28:01;;;;;;;16.90;5.70;;;;;;;;;;5000543;28;100036;-69
2023/10/03 04:30:27;;;;;;;14.90;5.45;;;;;;;;;;4997617;28;99832;-70
2023/10/03 04:32:54;;;;;;;21.38;5.43;;;;;;;;;;5003633;28;99990;-70
2023/10/03 04:35:22;;;;;;;17.60;5.15;;;;;;;;;;5005098;28;100470;-71
2023/10/03 04:37:52;;;;;;;17.42;5.93;;;;;;;;;;5003884;28;99735;-70
2023/10/03 04:40:22;;;;;;;12.90;5.47;;;;;;;;;;5003426;28;99996;-71
2023/10/03 04:42:49;;;;;;;14.55;5.15;;;;;;;;;;5001121;28;100913;-70
2023/10/03 04:45:19;;;;;;;18.38;6.15;;;;;;;;;;5002310;28;100611;-70
2023/10/03 04:47:47;;;;;;;13.82;5.13;;;;;;;;;;5003086;28;98885;-71
2023/10/03 04:50:18;;;;;;;11.27;5.72;;;;;;;;;;4996260;28;99103;-71
2023/10/03 04:52:51;;;;;;;14.07;6.40;;;;;;;;;;5004401;28;100549;-71
2023/10/03 04:55:18;;;;;;;12.35;5.03;;;;;;;;;;5002974;28;98993;-71
2023/10/03 04:57:46;;;;;;;16.92;5.43;;;;;;;;;;5007389;28;100438;-71
2023/10/03 05:00:16;;;;;;;18.80;6.38;;;;;;;;;;5003546;28;99994;-71
2023/10/03 05:02:46;;;;;;;18.38;6.72;;;;;;;;;;5001465;28;100103;-71
2023/10/03 05:05:14;;;;;;;19.15;6.22;;;;;;;;;;5004577;28;100248;-71
2023/10/03 05:07:41;;;;;;;16.60;5.28;;;;;;;;;;5006390;28;100065;-71
2023/10/03 05:10:07;;;;;;;18.50;5.90;;;;;;;;;;5005923;27;99216;-71
2023/10/03 05:12:34;;;;;;;16.92;5.93;;;;;;;;;;5005920;28;99946;-72
2023/10/03 05:15:00;;;;;;;16.25;4.97;;;;;;;;;;5006140;28;99910;-71
2023/10/03 05:17:27;;;;;;;11.35;4.38;;;;;;;;;;4994175;28;100321;-71
2023/10/03 05:19:58;;;;;;;9.50;4.60;;;;;;;;;;5008153;28;100397;-70
2023/10/03 05:22:25;;;;;;;13.88;4.88;;;;;;;;;;5002476;28;99230;-70
2023/10/03 05:24:52;;;;;;;9.25;4.63;;;;;;;;;;5002996;28;99708;-70
2023/10/03 05:27:18;;;;;;;15.75;4.38;;;;;;;;;;5005352;28;98914;-71
2023/10/03 05:29:45;;;;;;;8.63;4.50;;;;;;;;;;5004662;28;98621;-72
2023/10/03 05:32:14;;;;;;;12.15;4.45;;;;;;;;;;5005097;28;99400;-71
2023/10/03 05:34:40;;;;;;;7.55;4.20;;;;;;;;;;5003175;28;100377;-71
2023/10/03 05:37:06;;;;;;;12.98;4.20;;;;;;;;;;5005624;28;100676;-70
2023/10/03 05:39:33;;;;;;;9.43;4.03;;;;;;;;;;5006256;28;100212;-71
2023/10/03 05:42:00;;;;;;;7.55;3.88;;;;;;;;;;5009018;28;99234;-71
2023/10/03 05:44:26;;;;;;;5.45;3.38;;;;;;;;;;5005540;28;99625;-72
2023/10/03 05:46:55;;;;;;;11.73;3.55;;;;;;;;;;5002617;28;100385;-71
2023/10/03 05:49:22;;;;;;;6.78;3.22;;;;;;;;;;5004818;27;99432;-71
2023/10/03 05:51:49;;;;;;;10.57;3.20;;;;;;;;;;5005671;27;99961;-71
2023/10/03 05:54:15;;;;;;;10.55;3.65;;;;;;;;;;5002850;28;98980;-73
2023/10/03 05:56:42;;;;;;;3.28;2.78;;;;;;;;;;4995773;28;99922;-70
2023/10/03 05:59:08;;;;;;;11.90;3.33;;;;;;;;;;5001241;28;101650;-72
2023/10/03 06:01:35;;;;;;;5.57;2.58;;;;;;;;;;5002488;28;99592;-71
2023/10/03 06:04:02;;;;;;;10.77;3.28;;;;;;;;;;5008039;28;99397;-71
2023/10/03 06:06:31;;;;;;;6.53;2.95;;;;;;;;;;5001648;28;100172;-71
2023/10/03 06:08:58;;;;;;;11.25;3.47;;;;;;;;;;5004779;28;100627;-70
2023/10/03 06:11:24;;;;;;;7.28;3.28;;;;;;;;;;5002405;28;99819;-72
2023/10/03 06:13:51;;;;;;;6.88;3.20;;;;;;;;;;5002461;28;100769;-72
2023/10/03 06:16:17;;;;;;;7.10;3.60;;;;;;;;;;4996165;28;99512;-71
2023/10/03 06:18:44;;;;;;;11.55;3.33;;;;;;;;;;5003578;28;100138;-71
2023/10/03 06:21:11;;;;;;;9.57;3.30;;;;;;;;;;4996372;28;99839;-71
2023/10/03 06:23:38;;;;;;;11.32;3.60;;;;;;;;;;5007676;28;99358;-71
2023/10/03 06:26:05;;;;;;;8.02;3.28;;;;;;;;;;5003138;28;100340;-71
2023/10/03 06:28:31;;;;;;;4.43;2.50;;;;;;;;;;4998839;28;99021;-71
2023/10/03 06:30:58;;;;;;;6.50;3.25;;;;;;;;;;4994427;28;100321;-71
2023/10/03 06:33:24;;;;;;;6.82;3.67;;;;;;;;;;4993496;28;100492;-71
2023/10/03 06:35:51;;;;;;;5.47;2.80;;;;;;;;;;4993171;28;99029;-70
2023/10/03 06:38:23;;;;;;;5.18;2.83;;;;;;;;;;4999142;28;100036;-70
2023/10/03 06:40:50;;;;;;;6.45;3.00;;;;;;;;;;4995186;28;100679;-70
2023/10/03 06:43:17;;;;;;;9.00;3.67;;;;;;;;;;4995724;28;102178;-71
2023/10/03 06:45:43;;;;;;;7.38;3.35;;;;;;;;;;5002788;28;99685;-71
2023/10/03 06:48:10;;;;;;;9.27;2.60;;;;;;;;;;5002533;28;99274;-70
2023/10/03 06:50:37;;;;;;;7.95;2.72;;;;;;;;;;5003424;28;100180;-71
2023/10/03 06:53:05;;;;;;;6.13;2.20;;;;;;;;;;5004231;28;99383;-70
2023/10/03 06:55:35;;;;;;;8.05;2.88;;;;;;;;;;5002457;28;100313;-71
2023/10/03 06:58:02;;;;;;;8.82;2.25;;;;;;;;;;5002055;28;99326;-71
2023/10/03 07:00:32;;;;;;;6.78;2.22;;;;;;;;;;5002041;28;99113;-71
2023/10/03 07:02:58;;;;;;;6.43;2.30;;;;;;;;;;4999139;28;100041;-72
2023/10/03 07:05:25;;;;;;;5.40;2.35;;;;;;;;;;5002286;28;99708;-71
2023/10/03 07:07:53;;;;;;;2.65;1.92;;;;;;;;;;5008666;28;100195;-71
2023/10/03 07:10:21;;;;;;;6.50;1.90;;;;;;;;;;5001998;28;100204;-71
2023/10/03 07:12:48;;;;;;;5.88;2.08;;;;;;;;;;5003722;28;100340;-71
2023/10/03 07:15:14;;;;;;;3.85;2.15;;;;;;;;;;4999526;28;99763;-70
2023/10/03 07:17:41;;;;;;;5.53;2.20;;;;;;;;;;5002561;28;99636;-72
2023/10/03 07:20:09;;;;;;;5.25;1.60;;;;;;;;;;5004422;28;99820;-70
2023/10/03 07:22:37;;;;;;;5.45;2.47;;;;;;;;;;5004615;28;99084;-70
2023/10/03 07:25:06;;;;;;;12.45;1.80;;;;;;;;;;5005479;28;99984;-70
2023/10/03 07:27:36;;;;;;;8.38;1.60;;;;;;;;;;5005053;28;100049;-70
2023/10/03 07:30:03;;;;;;;4.15;1.77;;;;;;;;;;5006754;28;100417;-71
2023/10/03 07:32:30;;;;;;;5.28;1.73;;;;;;;;;;4999408;28;100294;-71
2023/10/03 07:34:57;;;;;;;3.65;1.65;;;;;;;;;;5002073;28;98918;-73
2023/10/03 07:37:24;;;;;;;4.93;1.60;;;;;;;;;;5004014;28;102254;-70
2023/10/03 07:39:51;;;;;;;9.43;1.60;;;;;;;;;;5009288;27;100013;-71
2023/10/03 07:42:19;;;;;;;3.78;1.80;;;;;;;;;;5003366;28;99977;-72
2023/10/03 07:44:45;;;;;;;9.48;2.15;;;;;;;;;;5003897;28;99445;-72
2023/10/03 07:47:13;;;;;;;4.50;1.88;;;;;;;;;;4999465;28;100112;-72
2023/10/03 07:49:42;;;;;;;11.55;2.80;;;;;;;;;;5003638;28;99454;-71
2023/10/03 07:52:08;;;;;;;3.47;1.83;;;;;;;;;;5004124;28;99504;-69
2023/10/03 07:54:37;;;;;;;5.55;1.65;;;;;;;;;;4992171;28;99301;-70
2023/10/03 07:57:05;;;;;;;3.30;1.25;;;;;;;;;;4997592;28;100006;-70
2023/10/03 07:59:32;;;;;;;1.92;1.30;;;;;;;;;;4995503;28;100067;-72
2023/10/03 08:02:05;;;;;;;4.20;1.50;;;;;;;;;;5002351;28;99718;-71
2023/10/03 08:04:32;;;;;;;4.80;1.48;;;;;;;;;;5001264;28;99504;-71
2023/10/03 08:06:59;;;;;;;2.28;1.10;;;;;;;;;;5003377;28;99927;-71
2023/10/03 08:09:26;;;;;;;2.38;1.08;;;;;;;;;;5003104;28;99165;-73
2023/10/03 08:11:52;;;;;;;4.25;1.30;;;;;;;;;;5002459;28;100200;-71
2023/10/03 08:14:19;;;;;;;4.15;1.10;;;;;;;;;;5005111;28;98658;-71
2023/10/03 08:16:46;;;;;;;6.55;2.13;;;;;;;;;;5003343;28;99941;-70
2023/10/03 08:19:21;;;;;;;4.50;1.33;;;;;;;;;;5002988;28;98877;-71
2023/10/03 08:21:48;;;;;;;3.22;1.48;;;;;;;;;;4996604;28;99207;-72
2023/10/03 08:24:19;;;;;;;4.47;1.27;;;;;;;;;;5002662;28;100234;-72
2023/10/03 08:26:46;;;;;;;5.90;1.52;;;;;;;;;;4996965;28;100473;-72
2023/10/03 08:29:21;;;;;;;6.63;1.70;;;;;;;;;;5003605;28;100739;-72
2023/10/03 08:31:49;;;;;;;3.70;1.30;;;;;;;;;;4995349;28;100651;-72
2023/10/03 08:34:16;;;;;;;4.00;1.60;;;;;;;;;;5005013;28;99948;-71
2023/10/03 08:36:43;;;;;;;2.45;1.25;;;;;;;;;;5003250;28;100153;-72
2023/10/03 08:39:12;;;;;;;6.53;1.13;;;;;;;;;;5003629;28;100161;-72
2023/10/03 08:41:53;;;;;;;3.33;1.25;;;;;;;;;;5004229;28;100198;-72
2023/10/03 08:44:23;;;;;;;2.58;1.02;;;;;;;;;;5002644;28;99850;-71
2023/10/03 08:46:50;;;;;;;13.13;1.70;;;;;;;;;;5005432;28;99534;-71
2023/10/03 08:49:19;;;;;;;4.65;1.27;;;;;;;;;;5007282;28;99861;-72
2023/10/03 08:51:46;;;;;;;3.40;1.42;;;;;;;;;;5002454;28;100923;-71
2023/10/03 08:54:13;;;;;;;6.63;1.30;;;;;;;;;;4997015;28;100174;-71
2023/10/03 08:56:41;;;;;;;6.03;1.45;;;;;;;;;;4990941;28;99110;-72
2023/10/03 08:59:09;;;;;;;5.80;1.17;;;;;;;;;;4987992;28;98865;-71
2023/10/03 09:01:46;;;;;;;4.00;1.08;;;;;;;;;;4987479;28;99574;-70
2023/10/03 09:04:18;;;;;;;6.80;1.90;;;;;;;;;;4998632;28;100112;-70
2023/10/03 09:06:46;;;;;;;1.80;1.07;;;;;;;;;;5007296;28;99001;-71
2023/10/03 09:09:13;;;;;;;1.38;1.00;;;;;;;;;;5007004;28;99003;-73
2023/10/03 09:11:44;;;;;;;0.82;0.73;;;;;;;;;;5006999;28;99537;-71
2023/10/03 09:14:19;;;;;;;1.35;0.70;;;;;;;;;;5013851;27;98992;-70
2023/10/03 09:16:50;;;;;;;1.80;0.60;;;;;;;;;;5005609;28;99449;-69
2023/10/03 09:19:23;;;;;;;0.73;0.52;;;;;;;;;;5010186;28;100906;-70
2023/10/03 09:21:51;;;;;;;1.65;0.60;;;;;;;;;;5005304;28;99735;-71
2023/10/03 09:24:21;;;;;;;2.67;0.50;;;;;;;;;;4994868;28;100037;-71
2023/10/03 09:27:02;;;;;;;2.47;0.80;;;;;;;;;;5007256;28;99452;-71
2023/10/03 09:29:31;;;;;;;2.92;0.50;;;;;;;;;;5002791;28;99157;-71
2023/10/03 09:32:13;;;;;;;4.80;1.27;;;;;;;;;;5006087;28;99347;-71
2023/10/03 09:34:41;;;;;;;;;;;;;;;;;;5004003;28;99456;-72
2023/10/03 09:37:08;;;;;;;3.35;0.80;;;;;;;;;;5004399;28;127970;-72
2023/10/03 09:40:21;;;;;;;1.55;0.88;;;;;;;;;;5004268;28;99269;-73
2023/10/03 09:42:24;;;;;;;1.92;0.95;;;;;;;;;;5004138;28;100051;-71
2023/10/03 09:44:51;;;;;;;4.65;1.00;;;;;;;;;;4995846;28;100513;-70
2023/10/03 09:47:19;;;;;;;2.58;0.70;;;;;;;;;;4986287;28;100116;-72
2023/10/03 09:49:47;;;;;;;2.65;1.00;;;;;;;;;;4986274;28;100045;-71
2023/10/03 09:52:22;;;;;;;1.70;0.95;;;;;;;;;;4985733;28;100429;-71
2023/10/03 09:54:53;;;;;;;3.63;1.23;;;;;;;;;;4989256;28;99785;-71
2023/10/03 09:57:24;;;;;;;5.72;1.13;;;;;;;;;;4994830;28;100092;-71
2023/10/03 09:59:50;;;;;;;0.82;0.80;;;;;;;;;;5009755;28;98588;-72
2023/10/03 10:02:30;;;;;;;2.55;1.00;;;;;;;;;;5005751;28;99040;-72
2023/10/03 10:05:02;;;;;;;1.63;0.95;;;;;;;;;;5008968;28;101727;-71
2023/10/03 10:07:34;;;;;;;3.35;0.80;;;;;;;;;;5005416;28;99575;-72
2023/10/03 10:10:07;;;;;;;2.15;1.15;;;;;;;;;;5006554;28;101715;-72
2023/10/03 10:12:38;;;;;;;4.47;1.58;;;;;;;;;;5005461;28;100706;-71
2023/10/03 10:17:46;;;;;;;3.47;1.25;;;;;;;;;;5002334;28;98811;-71
2023/10/03 10:20:13;;;;;;;3.85;1.23;;;;;;;;;;5004760;28;99322;-71
2023/10/03 10:22:58;;;;;;;1.73;0.80;;;;;;;;;;4998925;28;100228;-71
2023/10/03 10:25:25;;;;;;;7.68;1.30;;;;;;;;;;4999715;28;98962;-71
2023/10/03 10:28:02;;;;;;;6.10;1.10;;;;;;;;;;4998609;28;100037;-72
2023/10/03 10:30:28;;;;;;;1.98;1.30;;;;;;;;;;5005499;28;100060;-72
2023/10/03 10:33:13;;;;;;;1.40;1.10;;;;;;;;;;4998355;28;100788;-72
2023/10/03 10:35:56;;;;;;;3.60;0.93;;;;;;;;;;4999235;28;100136;-71
2023/10/03 10:38:32;;;;;;;2.83;0.98;;;;;;;;;;4996004;28;99578;-72
2023/10/03 10:41:17;;;;;;;1.88;1.08;;;;;;;;;;4999910;28;100031;-71
2023/10/03 10:44:13;;;;;;;1.52;1.02;;;;;;;;;;4996701;28;100204;-71
2023/10/03 10:47:00;;;;;;;2.83;0.90;;;;;;;;;;4979587;28;99372;-70
2023/10/03 10:49:37;;;;;;;4.72;0.70;;;;;;;;;;5003924;28;100480;-70
2023/10/03 10:52:07;;;;;;;3.63;0.90;;;;;;;;;;5005008;28;99817;-71
2023/10/03 10:54:35;;;;;;;2.10;0.90;;;;;;;;;;5003555;28;100781;-71
2023/10/03 10:57:03;;;;;;;3.60;1.08;;;;;;;;;;5004650;28;100239;-70
2023/10/03 10:59:31;;;;;;;5.05;1.00;;;;;;;;;;5003696;28;100930;-71
2023/10/03 11:01:58;;;;;;;4.18;1.30;;;;;;;;;;5003427;28;100405;-70
2023/10/03 11:04:25;;;;;;;1.05;0.93;;;;;;;;;;5004107;28;98984;-70
2023/10/03 11:06:54;;;;;;;2.50;0.93;;;;;;;;;;5004511;28;100468;-70
2023/10/03 11:09:22;;;;;;;2.63;0.98;;;;;;;;;;5003386;28;99442;-71
2023/10/03 11:11:52;;;;;;;2.28;1.10;;;;;;;;;;5007030;28;98979;-71
2023/10/03 11:14:29;;;;;;;2.47;0.90;;;;;;;;;;5003264;28;101397;-71
2023/10/03 11:16:56;;;;;;;9.73;1.63;;;;;;;;;;5004708;28;99878;-71
2023/10/03 11:19:23;;;;;;;2.72;1.30;;;;;;;;;;5004226;28;100319;-71
2023/10/03 11:21:49;;;;;;;2.20;1.02;;;;;;;;;;5004107;28;100415;-71
2023/10/03 11:24:18;;;;;;;2.95;1.30;;;;;;;;;;5004118;28;100296;-70
2023/10/03 11:26:50;;;;;;;2.97;1.50;;;;;;;;;;5004772;28;100676;-71
2023/10/03 11:29:17;;;;;;;;;;;;;;;;;;5004233;28;100275;-71
2023/10/03 11:31:45;;;;;;;4.43;1.20;;;;;;;;;;5003456;28;125895;-71
2023/10/03 11:34:27;;;;;;;4.40;1.67;;;;;;;;;;5007689;28;98936;-71
2023/10/03 11:36:54;;;;;;;2.67;1.67;;;;;;;;;;4995960;28;98666;-71
2023/10/03 11:39:23;;;;;;;10.88;2.10;;;;;;;;;;5003711;28;99261;-70
2023/10/03 11:41:50;;;;;;;5.45;2.00;;;;;;;;;;5004975;28;99639;-71
2023/10/03 11:44:17;;;;;;;9.80;2.90;;;;;;;;;;5003648;28;99883;-70
2023/10/03 11:46:44;;;;;;;4.93;2.08;;;;;;;;;;5004209;28;99831;-71
2023/10/03 11:49:11;;;;;;;8.23;2.17;;;;;;;;;;5003917;28;100109;-70
2023/10/03 11:51:38;;;;;;;9.48;2.70;;;;;;;;;;5003278;28;99830;-70
2023/10/03 11:54:08;;;;;;;3.17;1.55;;;;;;;;;;5004379;28;100128;-71
2023/10/03 11:56:42;;;;;;;3.42;1.48;;;;;;;;;;5006162;28;100100;-71
2023/10/03 11:59:09;;;;;;;5.93;1.42;;;;;;;;;;5003603;28;98976;-70
2023/10/03 12:01:39;;;;;;;6.07;1.90;;;;;;;;;;5003809;28;100204;-71
2023/10/03 12:04:05;;;;;;;6.28;2.10;;;;;;;;;;5003560;28;100306;-71
2023/10/03 12:06:32;;;;;;;4.78;1.80;;;;;;;;;;5003640;28;99540;-71
2023/10/03 12:08:58;;;;;;;3.08;1.63;;;;;;;;;;5004050;28;100862;-71
2023/10/03 12:11:25;;;;;;;6.10;1.92;;;;;;;;;;5003073;28;99923;-71
2023/10/03 12:13:53;;;;;;;5.82;1.90;;;;;;;;;;5003184;28;99395;-72
2023/10/03 12:16:20;;;;;;;11.27;1.90;;;;;;;;;;5005904;28;99262;-72
2023/10/03 12:18:47;;;;;;;7.13;2.13;;;;;;;;;;5010108;28;100149;-71
2023/10/03 12:21:14;;;;;;;6.03;1.90;;;;;;;;;;5006598;28;99776;-71
2023/10/03 12:23:40;;;;;;;5.85;2.08;;;;;;;;;;5007643;28;99887;-71
2023/10/03 12:26:07;;;;;;;6.47;1.73;;;;;;;;;;5006698;28;99913;-71
2023/10/03 12:28:52;;;;;;;5.65;1.90;;;;;;;;;;5006159;28;100227;-70
2023/10/03 12:31:25;;;;;;;4.55;1.88;;;;;;;;;;5007417;28;100036;-71
2023/10/03 12:33:52;;;;;;;10.70;1.85;;;;;;;;;;5006736;28;99464;-71
2023/10/03 12:36:19;;;;;;;13.77;2.65;;;;;;;;;;5006993;28;100136;-69
2023/10/03 12:38:45;;;;;;;7.72;1.95;;;;;;;;;;5008677;28;99836;-71
2023/10/03 12:41:12;;;;;;;3.90;2.00;;;;;;;;;;5007035;28;100454;-70
2023/10/03 12:43:46;;;;;;;5.53;2.63;;;;;;;;;;5007304;28;100270;-70
2023/10/03 12:46:13;;;;;;;5.10;2.35;;;;;;;;;;5003997;28;100192;-70
2023/10/03 12:48:40;;;;;;;5.63;2.15;;;;;;;;;;5003954;28;100352;-71
2023/10/03 12:51:08;;;;;;;10.65;2.20;;;;;;;;;;5006790;28;100030;-70
2023/10/03 12:53:37;;;;;;;11.70;2.53;;;;;;;;;;5005724;28;100563;-70
2023/10/03 12:56:08;;;;;;;8.63;1.88;;;;;;;;;;5007652;28;98729;-70
2023/10/03 12:58:35;;;;;;;5.60;1.92;;;;;;;;;;5006580;28;100092;-70
2023/10/03 13:01:03;;;;;;;6.18;2.00;;;;;;;;;;5009512;28;99057;-70
2023/10/03 13:03:30;;;;;;;5.32;2.10;;;;;;;;;;5005898;28;99911;-70
2023/10/03 13:05:57;;;;;;;6.10;2.40;;;;;;;;;;5006365;28;99784;-70
2023/10/03 13:08:25;;;;;;;14.07;1.90;;;;;;;;;;5005618;28;100499;-70
2023/10/03 13:11:01;;;;;;;6.90;1.98;;;;;;;;;;5006524;28;99221;-71
2023/10/03 13:13:28;;;;;;;5.13;1.95;;;;;;;;;;5006323;28;99082;-71
2023/10/03 13:15:54;;;;;;;8.85;2.08;;;;;;;;;;5005297;28;99262;-72
2023/10/03 13:18:23;;;;;;;9.10;2.05;;;;;;;;;;5006299;28;98864;-71
2023/10/03 13:20:50;;;;;;;6.38;1.77;;;;;;;;;;5007516;28;98863;-70
2023/10/03 13:23:19;;;;;;;4.75;2.08;;;;;;;;;;5005171;28;99685;-70
2023/10/03 13:25:45;;;;;;;5.68;2.00;;;;;;;;;;5005873;28;99246;-70
2023/10/03 13:28:13;;;;;;;5.78;1.88;;;;;;;;;;5004951;28;101126;-71
2023/10/03 13:30:40;;;;;;;5.10;1.75;;;;;;;;;;5006520;28;100638;-71
2023/10/03 13:33:06;;;;;;;6.45;2.10;;;;;;;;;;5005589;28;99070;-71
2023/10/03 13:35:33;;;;;;;4.57;1.92;;;;;;;;;;5005090;28;99356;-70
2023/10/03 13:38:00;;;;;;;6.40;1.45;;;;;;;;;;5005700;28;100379;-70
2023/10/03 13:40:27;;;;;;;8.18;1.80;;;;;;;;;;5006143;28;98921;-70
2023/10/03 13:42:54;;;;;;;7.32;3.20;;;;;;;;;;5005082;28;100862;-71
2023/10/03 13:45:21;;;;;;;5.72;1.70;;;;;;;;;;5010514;28;99252;-71
2023/10/03 13:47:51;;;;;;;3.30;1.50;;;;;;;;;;5006188;28;100244;-70
2023/10/03 13:50:18;;;;;;;8.10;2.10;;;;;;;;;;5005180;28;99870;-71
2023/10/03 13:52:46;;;;;;;8.57;1.88;;;;;;;;;;5005320;28;99745;-70
2023/10/03 13:55:15;;;;;;;5.03;1.50;;;;;;;;;;5006158;28;99462;-72
2023/10/03 13:57:42;;;;;;;4.03;1.70;;;;;;;;;;5005272;28;100024;-71
2023/10/03 14:00:12;;;;;;;4.07;1.50;;;;;;;;;;5006045;28;99398;-70
2023/10/03 14:02:44;;;;;;;7.57;1.80;;;;;;;;;;5005942;28;99636;-71
2023/10/03 14:05:12;;;;;;;3.22;1.88;;;;;;;;;;5005124;28;100328;-71
2023/10/03 14:07:38;;;;;;;5.18;2.22;;;;;;;;;;5009039;28;99890;-71
2023/10/03 14:10:09;;;;;;;2.88;1.52;;;;;;;;;;5006398;28;100209;-70
2023/10/03 14:12:36;;;;;;;3.85;1.88;;;;;;;;;;5005473;28;99725;-71
2023/10/03 14:15:03;;;;;;;7.00;2.00;;;;;;;;;;5006045;28;100363;-71
2023/10/03 14:17:29;;;;;;;6.28;2.00;;;;;;;;;;5004298;28;100059;-70
2023/10/03 14:19:56;;;;;;;5.65;1.88;;;;;;;;;;5006735;28;100166;-72
2023/10/03 14:22:22;;;;;;;1.42;1.30;;;;;;;;;;5005176;28;100208;-72
2023/10/03 14:24:50;;;;;;;1.85;1.52;;;;;;;;;;5004908;28;99132;-71
2023/10/03 14:27:16;;;;;;;6.93;2.00;;;;;;;;;;5004883;28;99075;-71
2023/10/03 14:29:43;;;;;;;5.43;2.00;;;;;;;;;;5008434;28;99661;-69
2023/10/03 14:32:19;;;;;;;4.88;1.70;;;;;;;;;;5004422;28;99969;-70
2023/10/03 14:34:48;;;;;;;3.13;1.65;;;;;;;;;;4998893;28;99511;-70
2023/10/03 14:37:14;;;;;;;2.50;1.40;;;;;;;;;;5002978;28;99342;-71
2023/10/03 14:39:40;;;;;;;2.28;1.30;;;;;;;;;;5004060;28;100202;-71